sensor_id;sensor_type;location;lat;lon;timestamp;P1;durP1;ratioP1;P2;durP2;ratioP2
76296;SDS011;65104;52.994;6.552;2023-03-03T00:00:34;35.10;;;11.68;;
76296;SDS011;65104;52.994;6.552;2023-03-03T00:03:00;37.83;;;15.07;;
76296;SDS011;65104;52.994;6.552;2023-03-03T00:05:30;41.58;;;14.35;;
76296;SDS011;65104;52.994;6.552;2023-03-03T00:07:57;37.67;;;13.25;;
76296;SDS011;65104;52.994;6.552;2023-03-03T00:10:22;34.38;;;12.93;;
76296;SDS011;65104;52.994;6.552;2023-03-03T00:12:48;37.28;;;13.43;;
76296;SDS011;65104;52.994;6.552;2023-03-03T00:15:16;52.72;;;14.82;;
76296;SDS011;65104;52.994;6.552;2023-03-03T00:17:43;37.35;;;14.18;;
76296;SDS011;65104;52.994;6.552;2023-03-03T00:20:24;44.42;;;15.70;;
76296;SDS011;65104;52.994;6.552;2023-03-03T00:22:54;47.35;;;14.13;;
76296;SDS011;65104;52.994;6.552;2023-03-03T00:25:32;42.63;;;14.75;;
76296;SDS011;65104;52.994;6.552;2023-03-03T00:28:42;49.85;;;15.85;;
76296;SDS011;65104;52.994;6.552;2023-03-03T00:30:49;50.55;;;16.38;;
76296;SDS011;65104;52.994;6.552;2023-03-03T00:33:24;41.53;;;14.13;;
76296;SDS011;65104;52.994;6.552;2023-03-03T00:35:53;43.92;;;14.27;;
76296;SDS011;65104;52.994;6.552;2023-03-03T00:38:21;41.15;;;13.52;;
76296;SDS011;65104;52.994;6.552;2023-03-03T00:40:48;45.72;;;14.70;;
76296;SDS011;65104;52.994;6.552;2023-03-03T00:43:17;47.42;;;15.43;;
76296;SDS011;65104;52.994;6.552;2023-03-03T00:45:46;39.75;;;13.80;;
76296;SDS011;65104;52.994;6.552;2023-03-03T00:50:45;38.80;;;15.25;;
76296;SDS011;65104;52.994;6.552;2023-03-03T00:53:17;39.33;;;13.55;;
76296;SDS011;65104;52.994;6.552;2023-03-03T00:55:45;43.83;;;13.52;;
76296;SDS011;65104;52.994;6.552;2023-03-03T00:58:11;40.13;;;13.48;;
76296;SDS011;65104;52.994;6.552;2023-03-03T01:00:37;37.88;;;13.30;;
76296;SDS011;65104;52.994;6.552;2023-03-03T01:03:06;49.83;;;15.38;;
76296;SDS011;65104;52.994;6.552;2023-03-03T01:05:33;42.35;;;13.85;;
76296;SDS011;65104;52.994;6.552;2023-03-03T01:07:59;45.13;;;13.02;;
76296;SDS011;65104;52.994;6.552;2023-03-03T01:10:25;48.47;;;14.68;;
76296;SDS011;65104;52.994;6.552;2023-03-03T01:12:52;43.40;;;14.02;;
76296;SDS011;65104;52.994;6.552;2023-03-03T01:15:18;45.35;;;13.50;;
76296;SDS011;65104;52.994;6.552;2023-03-03T01:17:44;33.45;;;12.40;;
76296;SDS011;65104;52.994;6.552;2023-03-03T01:20:11;38.17;;;12.68;;
76296;SDS011;65104;52.994;6.552;2023-03-03T01:22:38;36.10;;;13.70;;
76296;SDS011;65104;52.994;6.552;2023-03-03T01:25:04;47.15;;;12.60;;
76296;SDS011;65104;52.994;6.552;2023-03-03T01:27:30;28.63;;;10.55;;
76296;SDS011;65104;52.994;6.552;2023-03-03T01:29:56;38.30;;;11.88;;
76296;SDS011;65104;52.994;6.552;2023-03-03T01:32:24;31.58;;;11.82;;
76296;SDS011;65104;52.994;6.552;2023-03-03T01:34:50;35.60;;;11.05;;
76296;SDS011;65104;52.994;6.552;2023-03-03T01:37:15;32.58;;;10.98;;
76296;SDS011;65104;52.994;6.552;2023-03-03T01:39:41;39.00;;;11.13;;
76296;SDS011;65104;52.994;6.552;2023-03-03T01:42:06;26.10;;;11.70;;
76296;SDS011;65104;52.994;6.552;2023-03-03T01:44:32;32.53;;;11.23;;
76296;SDS011;65104;52.994;6.552;2023-03-03T01:47:05;43.97;;;11.40;;
76296;SDS011;65104;52.994;6.552;2023-03-03T01:49:44;38.75;;;10.52;;
76296;SDS011;65104;52.994;6.552;2023-03-03T01:52:24;34.80;;;10.60;;
76296;SDS011;65104;52.994;6.552;2023-03-03T01:54:55;43.25;;;10.90;;
76296;SDS011;65104;52.994;6.552;2023-03-03T01:57:34;36.28;;;11.13;;
76296;SDS011;65104;52.994;6.552;2023-03-03T02:00:03;41.20;;;12.32;;
76296;SDS011;65104;52.994;6.552;2023-03-03T02:02:31;38.05;;;11.43;;
76296;SDS011;65104;52.994;6.552;2023-03-03T02:04:57;34.03;;;10.93;;
76296;SDS011;65104;52.994;6.552;2023-03-03T02:07:23;31.27;;;11.02;;
76296;SDS011;65104;52.994;6.552;2023-03-03T02:09:56;35.40;;;10.43;;
76296;SDS011;65104;52.994;6.552;2023-03-03T02:12:32;35.58;;;10.18;;
76296;SDS011;65104;52.994;6.552;2023-03-03T02:15:20;27.45;;;8.95;;
76296;SDS011;65104;52.994;6.552;2023-03-03T02:17:48;26.92;;;8.68;;
76296;SDS011;65104;52.994;6.552;2023-03-03T02:20:27;30.98;;;9.75;;
76296;SDS011;65104;52.994;6.552;2023-03-03T02:23:00;30.38;;;8.98;;
76296;SDS011;65104;52.994;6.552;2023-03-03T02:25:41;25.05;;;9.13;;
76296;SDS011;65104;52.994;6.552;2023-03-03T02:28:12;32.30;;;9.38;;
76296;SDS011;65104;52.994;6.552;2023-03-03T02:30:38;24.73;;;8.30;;
76296;SDS011;65104;52.994;6.552;2023-03-03T02:33:04;30.50;;;9.02;;
76296;SDS011;65104;52.994;6.552;2023-03-03T02:35:37;27.48;;;8.27;;
76296;SDS011;65104;52.994;6.552;2023-03-03T02:38:15;28.73;;;9.45;;
76296;SDS011;65104;52.994;6.552;2023-03-03T02:43:51;22.00;;;8.63;;
76296;SDS011;65104;52.994;6.552;2023-03-03T02:46:18;22.60;;;9.40;;
76296;SDS011;65104;52.994;6.552;2023-03-03T02:48:44;24.52;;;8.00;;
76296;SDS011;65104;52.994;6.552;2023-03-03T02:51:09;33.15;;;9.25;;
76296;SDS011;65104;52.994;6.552;2023-03-03T02:53:34;27.67;;;8.82;;
76296;SDS011;65104;52.994;6.552;2023-03-03T02:56:00;23.42;;;9.55;;
76296;SDS011;65104;52.994;6.552;2023-03-03T02:58:25;24.48;;;9.35;;
76296;SDS011;65104;52.994;6.552;2023-03-03T03:00:51;21.60;;;8.32;;
76296;SDS011;65104;52.994;6.552;2023-03-03T03:03:16;45.90;;;9.52;;
76296;SDS011;65104;52.994;6.552;2023-03-03T03:05:42;29.30;;;8.48;;
76296;SDS011;65104;52.994;6.552;2023-03-03T03:08:07;38.70;;;8.65;;
76296;SDS011;65104;52.994;6.552;2023-03-03T03:10:34;31.15;;;8.80;;
76296;SDS011;65104;52.994;6.552;2023-03-03T03:13:00;37.85;;;9.18;;
76296;SDS011;65104;52.994;6.552;2023-03-03T03:15:25;50.63;;;10.43;;
76296;SDS011;65104;52.994;6.552;2023-03-03T03:17:51;34.28;;;10.02;;
76296;SDS011;65104;52.994;6.552;2023-03-03T03:20:16;45.08;;;8.80;;
76296;SDS011;65104;52.994;6.552;2023-03-03T03:22:42;30.92;;;9.18;;
76296;SDS011;65104;52.994;6.552;2023-03-03T03:25:07;30.75;;;9.18;;
76296;SDS011;65104;52.994;6.552;2023-03-03T03:27:33;32.30;;;7.63;;
76296;SDS011;65104;52.994;6.552;2023-03-03T03:29:58;18.95;;;6.30;;
76296;SDS011;65104;52.994;6.552;2023-03-03T03:32:24;37.58;;;7.55;;
76296;SDS011;65104;52.994;6.552;2023-03-03T03:34:49;31.35;;;7.03;;
76296;SDS011;65104;52.994;6.552;2023-03-03T03:37:14;27.33;;;6.32;;
76296;SDS011;65104;52.994;6.552;2023-03-03T03:39:40;28.08;;;5.45;;
76296;SDS011;65104;52.994;6.552;2023-03-03T03:42:06;37.03;;;6.40;;
76296;SDS011;65104;52.994;6.552;2023-03-03T03:44:31;28.48;;;6.35;;
76296;SDS011;65104;52.994;6.552;2023-03-03T03:46:56;34.85;;;7.53;;
76296;SDS011;65104;52.994;6.552;2023-03-03T03:49:22;25.83;;;7.68;;
76296;SDS011;65104;52.994;6.552;2023-03-03T03:51:47;27.40;;;7.53;;
76296;SDS011;65104;52.994;6.552;2023-03-03T03:54:13;43.67;;;7.88;;
76296;SDS011;65104;52.994;6.552;2023-03-03T03:56:38;26.63;;;6.43;;
76296;SDS011;65104;52.994;6.552;2023-03-03T03:59:06;29.70;;;8.05;;
76296;SDS011;65104;52.994;6.552;2023-03-03T04:01:32;39.15;;;7.00;;
76296;SDS011;65104;52.994;6.552;2023-03-03T04:03:58;33.40;;;7.30;;
76296;SDS011;65104;52.994;6.552;2023-03-03T04:06:23;25.95;;;7.20;;
76296;SDS011;65104;52.994;6.552;2023-03-03T04:08:49;39.03;;;7.28;;
76296;SDS011;65104;52.994;6.552;2023-03-03T04:11:14;32.13;;;7.80;;
76296;SDS011;65104;52.994;6.552;2023-03-03T04:13:40;35.85;;;7.53;;
76296;SDS011;65104;52.994;6.552;2023-03-03T04:16:05;24.00;;;7.20;;
76296;SDS011;65104;52.994;6.552;2023-03-03T04:18:31;26.98;;;6.85;;
76296;SDS011;65104;52.994;6.552;2023-03-03T04:20:56;24.50;;;7.75;;
76296;SDS011;65104;52.994;6.552;2023-03-03T04:23:22;34.97;;;6.05;;
76296;SDS011;65104;52.994;6.552;2023-03-03T04:25:47;12.43;;;5.40;;
76296;SDS011;65104;52.994;6.552;2023-03-03T04:28:14;17.15;;;4.97;;
76296;SDS011;65104;52.994;6.552;2023-03-03T04:30:39;21.20;;;4.75;;
76296;SDS011;65104;52.994;6.552;2023-03-03T04:33:05;16.15;;;4.47;;
76296;SDS011;65104;52.994;6.552;2023-03-03T04:35:30;14.60;;;4.40;;
76296;SDS011;65104;52.994;6.552;2023-03-03T04:37:56;24.85;;;5.43;;
76296;SDS011;65104;52.994;6.552;2023-03-03T04:40:21;31.02;;;5.97;;
76296;SDS011;65104;52.994;6.552;2023-03-03T04:42:47;26.63;;;6.32;;
76296;SDS011;65104;52.994;6.552;2023-03-03T04:45:12;33.58;;;6.57;;
76296;SDS011;65104;52.994;6.552;2023-03-03T04:47:37;35.92;;;6.20;;
76296;SDS011;65104;52.994;6.552;2023-03-03T04:50:03;38.67;;;7.15;;
76296;SDS011;65104;52.994;6.552;2023-03-03T04:52:29;24.60;;;5.13;;
76296;SDS011;65104;52.994;6.552;2023-03-03T04:54:55;24.45;;;6.57;;
76296;SDS011;65104;52.994;6.552;2023-03-03T04:57:20;40.15;;;6.40;;
76296;SDS011;65104;52.994;6.552;2023-03-03T04:59:46;27.42;;;6.35;;
76296;SDS011;65104;52.994;6.552;2023-03-03T05:02:11;30.10;;;5.97;;
76296;SDS011;65104;52.994;6.552;2023-03-03T05:04:37;29.30;;;5.75;;
76296;SDS011;65104;52.994;6.552;2023-03-03T05:07:03;22.13;;;5.85;;
76296;SDS011;65104;52.994;6.552;2023-03-03T05:09:28;31.58;;;6.47;;
76296;SDS011;65104;52.994;6.552;2023-03-03T05:11:54;36.70;;;6.40;;
76296;SDS011;65104;52.994;6.552;2023-03-03T05:14:19;34.92;;;6.90;;
76296;SDS011;65104;52.994;6.552;2023-03-03T05:16:45;27.67;;;6.53;;
76296;SDS011;65104;52.994;6.552;2023-03-03T05:19:11;36.42;;;7.13;;
76296;SDS011;65104;52.994;6.552;2023-03-03T05:21:36;21.42;;;5.50;;
76296;SDS011;65104;52.994;6.552;2023-03-03T05:24:07;12.05;;;5.55;;
76296;SDS011;65104;52.994;6.552;2023-03-03T05:26:33;26.23;;;6.07;;
76296;SDS011;65104;52.994;6.552;2023-03-03T05:28:58;16.42;;;5.07;;
76296;SDS011;65104;52.994;6.552;2023-03-03T05:31:24;27.25;;;5.10;;
76296;SDS011;65104;52.994;6.552;2023-03-03T05:33:51;18.10;;;4.90;;
76296;SDS011;65104;52.994;6.552;2023-03-03T05:36:16;20.70;;;4.70;;
76296;SDS011;65104;52.994;6.552;2023-03-03T05:38:42;28.48;;;5.93;;
76296;SDS011;65104;52.994;6.552;2023-03-03T05:41:08;27.15;;;4.28;;
76296;SDS011;65104;52.994;6.552;2023-03-03T05:43:33;16.65;;;3.90;;
76296;SDS011;65104;52.994;6.552;2023-03-03T05:45:59;9.43;;;3.50;;
76296;SDS011;65104;52.994;6.552;2023-03-03T05:48:24;21.08;;;4.75;;
76296;SDS011;65104;52.994;6.552;2023-03-03T05:50:50;13.43;;;3.38;;
76296;SDS011;65104;52.994;6.552;2023-03-03T05:53:16;5.40;;;3.22;;
76296;SDS011;65104;52.994;6.552;2023-03-03T05:55:42;21.85;;;4.60;;
76296;SDS011;65104;52.994;6.552;2023-03-03T05:58:08;12.90;;;3.97;;
76296;SDS011;65104;52.994;6.552;2023-03-03T06:00:33;32.25;;;5.55;;
76296;SDS011;65104;52.994;6.552;2023-03-03T06:02:59;17.33;;;4.53;;
76296;SDS011;65104;52.994;6.552;2023-03-03T06:05:24;20.52;;;4.85;;
76296;SDS011;65104;52.994;6.552;2023-03-03T06:07:50;24.95;;;4.75;;
76296;SDS011;65104;52.994;6.552;2023-03-03T06:10:15;21.08;;;4.32;;
76296;SDS011;65104;52.994;6.552;2023-03-03T06:12:41;19.90;;;4.85;;
76296;SDS011;65104;52.994;6.552;2023-03-03T06:15:06;20.92;;;4.78;;
76296;SDS011;65104;52.994;6.552;2023-03-03T06:17:32;18.38;;;4.40;;
76296;SDS011;65104;52.994;6.552;2023-03-03T06:19:58;19.58;;;4.63;;
76296;SDS011;65104;52.994;6.552;2023-03-03T06:22:23;20.02;;;4.80;;
76296;SDS011;65104;52.994;6.552;2023-03-03T06:24:49;15.18;;;4.93;;
76296;SDS011;65104;52.994;6.552;2023-03-03T06:27:14;14.02;;;4.03;;
76296;SDS011;65104;52.994;6.552;2023-03-03T06:29:39;10.90;;;4.10;;
76296;SDS011;65104;52.994;6.552;2023-03-03T06:32:05;13.77;;;4.20;;
76296;SDS011;65104;52.994;6.552;2023-03-03T06:34:30;25.65;;;5.20;;
76296;SDS011;65104;52.994;6.552;2023-03-03T06:36:56;16.50;;;3.97;;
76296;SDS011;65104;52.994;6.552;2023-03-03T06:39:21;15.38;;;3.97;;
76296;SDS011;65104;52.994;6.552;2023-03-03T06:41:47;11.75;;;4.00;;
76296;SDS011;65104;52.994;6.552;2023-03-03T06:44:12;15.48;;;3.90;;
76296;SDS011;65104;52.994;6.552;2023-03-03T06:46:37;12.65;;;3.97;;
76296;SDS011;65104;52.994;6.552;2023-03-03T06:49:03;20.80;;;3.75;;
76296;SDS011;65104;52.994;6.552;2023-03-03T06:51:36;14.32;;;3.53;;
76296;SDS011;65104;52.994;6.552;2023-03-03T06:54:11;12.32;;;4.13;;
76296;SDS011;65104;52.994;6.552;2023-03-03T06:56:38;15.05;;;3.63;;
76296;SDS011;65104;52.994;6.552;2023-03-03T06:59:08;18.15;;;3.72;;
76296;SDS011;65104;52.994;6.552;2023-03-03T07:01:36;10.90;;;3.58;;
76296;SDS011;65104;52.994;6.552;2023-03-03T07:04:13;15.48;;;3.83;;
76296;SDS011;65104;52.994;6.552;2023-03-03T07:06:52;17.58;;;3.72;;
76296;SDS011;65104;52.994;6.552;2023-03-03T07:09:19;12.43;;;3.60;;
76296;SDS011;65104;52.994;6.552;2023-03-03T07:11:48;13.23;;;3.95;;
76296;SDS011;65104;52.994;6.552;2023-03-03T07:14:15;13.88;;;3.95;;
76296;SDS011;65104;52.994;6.552;2023-03-03T07:16:43;8.25;;;2.97;;
76296;SDS011;65104;52.994;6.552;2023-03-03T07:19:19;15.23;;;3.70;;
76296;SDS011;65104;52.994;6.552;2023-03-03T07:24:42;11.20;;;3.65;;
76296;SDS011;65104;52.994;6.552;2023-03-03T07:27:11;14.52;;;3.60;;
76296;SDS011;65104;52.994;6.552;2023-03-03T07:29:49;8.88;;;3.17;;
76296;SDS011;65104;52.994;6.552;2023-03-03T07:34:54;11.82;;;3.10;;
76296;SDS011;65104;52.994;6.552;2023-03-03T07:37:36;8.63;;;3.58;;
76296;SDS011;65104;52.994;6.552;2023-03-03T07:40:37;5.82;;;3.40;;
76296;SDS011;65104;52.994;6.552;2023-03-03T07:43:01;6.20;;;3.33;;
76296;SDS011;65104;52.994;6.552;2023-03-03T07:45:39;11.57;;;3.22;;
76296;SDS011;65104;52.994;6.552;2023-03-03T07:48:09;11.50;;;3.72;;
76296;SDS011;65104;52.994;6.552;2023-03-03T07:50:43;8.07;;;3.55;;
76296;SDS011;65104;52.994;6.552;2023-03-03T07:53:51;8.30;;;3.15;;
76296;SDS011;65104;52.994;6.552;2023-03-03T07:55:59;19.92;;;4.60;;
76296;SDS011;65104;52.994;6.552;2023-03-03T08:04:08;11.57;;;3.25;;
76296;SDS011;65104;52.994;6.552;2023-03-03T08:06:45;7.95;;;3.33;;
76296;SDS011;65104;52.994;6.552;2023-03-03T08:11:50;8.25;;;3.70;;
76296;SDS011;65104;52.994;6.552;2023-03-03T08:14:26;9.45;;;3.88;;
76296;SDS011;65104;52.994;6.552;2023-03-03T08:16:55;10.45;;;3.83;;
76296;SDS011;65104;52.994;6.552;2023-03-03T08:19:21;6.25;;;3.53;;
76296;SDS011;65104;52.994;6.552;2023-03-03T08:21:47;5.47;;;3.88;;
76296;SDS011;65104;52.994;6.552;2023-03-03T08:24:13;4.50;;;3.28;;
76296;SDS011;65104;52.994;6.552;2023-03-03T08:26:38;5.00;;;3.28;;
76296;SDS011;65104;52.994;6.552;2023-03-03T08:29:04;6.97;;;3.30;;
76296;SDS011;65104;52.994;6.552;2023-03-03T08:31:29;5.22;;;2.58;;
76296;SDS011;65104;52.994;6.552;2023-03-03T08:33:55;5.07;;;3.03;;
76296;SDS011;65104;52.994;6.552;2023-03-03T08:36:20;4.25;;;3.08;;
76296;SDS011;65104;52.994;6.552;2023-03-03T08:38:46;5.57;;;3.35;;
76296;SDS011;65104;52.994;6.552;2023-03-03T08:41:11;5.75;;;3.38;;
76296;SDS011;65104;52.994;6.552;2023-03-03T08:43:37;3.78;;;3.08;;
76296;SDS011;65104;52.994;6.552;2023-03-03T08:46:03;4.38;;;3.22;;
76296;SDS011;65104;52.994;6.552;2023-03-03T08:48:29;4.30;;;3.00;;
76296;SDS011;65104;52.994;6.552;2023-03-03T08:50:55;4.70;;;3.33;;
76296;SDS011;65104;52.994;6.552;2023-03-03T08:53:20;4.40;;;3.20;;
76296;SDS011;65104;52.994;6.552;2023-03-03T08:55:46;5.60;;;3.03;;
76296;SDS011;65104;52.994;6.552;2023-03-03T08:58:12;7.22;;;3.85;;
76296;SDS011;65104;52.994;6.552;2023-03-03T09:00:38;5.57;;;3.40;;
76296;SDS011;65104;52.994;6.552;2023-03-03T09:03:04;4.13;;;2.70;;
76296;SDS011;65104;52.994;6.552;2023-03-03T09:05:34;5.70;;;3.92;;
76296;SDS011;65104;52.994;6.552;2023-03-03T09:08:00;6.03;;;3.72;;
76296;SDS011;65104;52.994;6.552;2023-03-03T09:10:27;5.47;;;3.40;;
76296;SDS011;65104;52.994;6.552;2023-03-03T09:12:53;5.18;;;3.75;;
76296;SDS011;65104;52.994;6.552;2023-03-03T09:17:59;5.18;;;3.78;;
76296;SDS011;65104;52.994;6.552;2023-03-03T09:20:35;5.50;;;3.70;;
76296;SDS011;65104;52.994;6.552;2023-03-03T09:26:26;5.15;;;3.58;;
76296;SDS011;65104;52.994;6.552;2023-03-03T09:31:41;6.43;;;3.33;;
76296;SDS011;65104;52.994;6.552;2023-03-03T09:34:20;4.68;;;3.90;;
76296;SDS011;65104;52.994;6.552;2023-03-03T09:37:14;3.67;;;3.05;;
76296;SDS011;65104;52.994;6.552;2023-03-03T09:40:01;4.45;;;2.97;;
76296;SDS011;65104;52.994;6.552;2023-03-03T09:43:34;5.53;;;3.55;;
76296;SDS011;65104;52.994;6.552;2023-03-03T09:46:03;5.07;;;3.55;;
76296;SDS011;65104;52.994;6.552;2023-03-03T09:48:47;5.00;;;3.65;;
76296;SDS011;65104;52.994;6.552;2023-03-03T09:51:30;4.38;;;3.33;;
76296;SDS011;65104;52.994;6.552;2023-03-03T09:54:12;5.68;;;4.28;;
76296;SDS011;65104;52.994;6.552;2023-03-03T09:57:12;6.28;;;4.43;;
76296;SDS011;65104;52.994;6.552;2023-03-03T09:59:43;6.32;;;3.65;;
76296;SDS011;65104;52.994;6.552;2023-03-03T10:02:30;5.03;;;3.63;;
76296;SDS011;65104;52.994;6.552;2023-03-03T10:05:10;7.53;;;3.92;;
76296;SDS011;65104;52.994;6.552;2023-03-03T10:10:32;5.07;;;3.13;;
76296;SDS011;65104;52.994;6.552;2023-03-03T10:21:16;4.93;;;3.42;;
76296;SDS011;65104;52.994;6.552;2023-03-03T10:40:12;6.13;;;3.03;;
76296;SDS011;65104;52.994;6.552;2023-03-03T10:45:44;3.95;;;3.10;;
76296;SDS011;65104;52.994;6.552;2023-03-03T10:48:35;6.15;;;3.13;;
76296;SDS011;65104;52.994;6.552;2023-03-03T11:04:53;2.70;;;2.13;;
76296;SDS011;65104;52.994;6.552;2023-03-03T11:10:37;3.05;;;2.40;;
76296;SDS011;65104;52.994;6.552;2023-03-03T11:18:45;5.60;;;2.40;;
76296;SDS011;65104;52.994;6.552;2023-03-03T11:27:05;3.45;;;2.20;;
76296;SDS011;65104;52.994;6.552;2023-03-03T11:32:42;4.00;;;1.80;;
76296;SDS011;65104;52.994;6.552;2023-03-03T11:35:20;3.60;;;1.92;;
76296;SDS011;65104;52.994;6.552;2023-03-03T11:38:01;2.17;;;1.48;;
76296;SDS011;65104;52.994;6.552;2023-03-03T11:43:21;2.33;;;1.38;;
76296;SDS011;65104;52.994;6.552;2023-03-03T11:45:54;2.40;;;1.40;;
76296;SDS011;65104;52.994;6.552;2023-03-03T11:48:33;1.88;;;1.15;;
76296;SDS011;65104;52.994;6.552;2023-03-03T11:54:08;2.78;;;1.00;;
76296;SDS011;65104;52.994;6.552;2023-03-03T11:56:41;1.25;;;1.10;;
76296;SDS011;65104;52.994;6.552;2023-03-03T12:04:30;4.68;;;0.90;;
76296;SDS011;65104;52.994;6.552;2023-03-03T12:12:26;2.95;;;0.90;;
76296;SDS011;65104;52.994;6.552;2023-03-03T12:26:38;4.10;;;1.13;;
76296;SDS011;65104;52.994;6.552;2023-03-03T12:29:36;0.73;;;0.73;;
76296;SDS011;65104;52.994;6.552;2023-03-03T12:32:09;0.80;;;0.60;;
76296;SDS011;65104;52.994;6.552;2023-03-03T12:37:44;0.77;;;0.70;;
76296;SDS011;65104;52.994;6.552;2023-03-03T12:40:40;1.42;;;0.70;;
76296;SDS011;65104;52.994;6.552;2023-03-03T12:43:41;1.67;;;0.70;;
76296;SDS011;65104;52.994;6.552;2023-03-03T12:49:04;2.40;;;0.90;;
76296;SDS011;65104;52.994;6.552;2023-03-03T12:51:32;1.85;;;0.55;;
76296;SDS011;65104;52.994;6.552;2023-03-03T12:54:09;1.40;;;0.80;;
76296;SDS011;65104;52.994;6.552;2023-03-03T12:56:45;1.80;;;0.63;;
76296;SDS011;65104;52.994;6.552;2023-03-03T13:02:12;2.25;;;0.80;;
76296;SDS011;65104;52.994;6.552;2023-03-03T13:10:38;2.05;;;0.80;;
76296;SDS011;65104;52.994;6.552;2023-03-03T13:13:07;1.30;;;0.93;;
76296;SDS011;65104;52.994;6.552;2023-03-03T13:16:23;2.88;;;1.05;;
76296;SDS011;65104;52.994;6.552;2023-03-03T13:18:54;2.95;;;0.90;;
76296;SDS011;65104;52.994;6.552;2023-03-03T13:21:49;3.35;;;1.05;;
76296;SDS011;65104;52.994;6.552;2023-03-03T13:31:48;2.67;;;0.70;;
76296;SDS011;65104;52.994;6.552;2023-03-03T13:34:22;2.65;;;0.80;;
76296;SDS011;65104;52.994;6.552;2023-03-03T13:39:39;2.08;;;0.77;;
76296;SDS011;65104;52.994;6.552;2023-03-03T13:42:27;3.40;;;0.90;;
76296;SDS011;65104;52.994;6.552;2023-03-03T13:45:05;1.42;;;0.47;;
76296;SDS011;65104;52.994;6.552;2023-03-03T13:47:43;2.45;;;1.08;;
76296;SDS011;65104;52.994;6.552;2023-03-03T13:50:18;5.43;;;2.08;;
76296;SDS011;65104;52.994;6.552;2023-03-03T14:01:11;3.42;;;1.10;;
76296;SDS011;65104;52.994;6.552;2023-03-03T14:06:18;7.05;;;1.60;;
76296;SDS011;65104;52.994;6.552;2023-03-03T14:08:55;1.42;;;0.63;;
76296;SDS011;65104;52.994;6.552;2023-03-03T14:20:28;3.58;;;1.67;;
76296;SDS011;65104;52.994;6.552;2023-03-03T14:22:57;4.57;;;1.73;;
76296;SDS011;65104;52.994;6.552;2023-03-03T14:25:25;2.83;;;1.05;;
76296;SDS011;65104;52.994;6.552;2023-03-03T14:28:10;0.98;;;0.70;;
76296;SDS011;65104;52.994;6.552;2023-03-03T14:30:41;4.80;;;0.90;;
76296;SDS011;65104;52.994;6.552;2023-03-03T14:35:37;4.15;;;1.15;;
76296;SDS011;65104;52.994;6.552;2023-03-03T14:38:11;3.88;;;1.13;;
76296;SDS011;65104;52.994;6.552;2023-03-03T14:40:41;5.97;;;1.27;;
76296;SDS011;65104;52.994;6.552;2023-03-03T14:45:49;8.98;;;1.35;;
76296;SDS011;65104;52.994;6.552;2023-03-03T14:48:21;7.57;;;1.60;;
76296;SDS011;65104;52.994;6.552;2023-03-03T14:53:36;8.85;;;1.92;;
76296;SDS011;65104;52.994;6.552;2023-03-03T15:02:02;7.38;;;2.10;;
76296;SDS011;65104;52.994;6.552;2023-03-03T15:04:40;8.73;;;2.67;;
76296;SDS011;65104;52.994;6.552;2023-03-03T15:07:19;10.27;;;2.30;;
76296;SDS011;65104;52.994;6.552;2023-03-03T15:09:58;11.80;;;2.85;;
76296;SDS011;65104;52.994;6.552;2023-03-03T15:12:34;8.95;;;2.20;;
76296;SDS011;65104;52.994;6.552;2023-03-03T15:20:30;6.35;;;2.15;;
76296;SDS011;65104;52.994;6.552;2023-03-03T15:26:19;9.30;;;3.80;;
76296;SDS011;65104;52.994;6.552;2023-03-03T15:28:59;9.43;;;2.70;;
76296;SDS011;65104;52.994;6.552;2023-03-03T15:31:53;16.33;;;3.05;;
76296;SDS011;65104;52.994;6.552;2023-03-03T15:37:05;9.68;;;3.10;;
76296;SDS011;65104;52.994;6.552;2023-03-03T15:39:44;10.25;;;3.30;;
76296;SDS011;65104;52.994;6.552;2023-03-03T15:42:26;12.50;;;4.57;;
76296;SDS011;65104;52.994;6.552;2023-03-03T15:53:27;7.97;;;2.03;;
76296;SDS011;65104;52.994;6.552;2023-03-03T16:07:28;10.57;;;3.40;;
76296;SDS011;65104;52.994;6.552;2023-03-03T16:12:53;9.55;;;2.80;;
76296;SDS011;65104;52.994;6.552;2023-03-03T16:23:48;10.93;;;2.28;;
76296;SDS011;65104;52.994;6.552;2023-03-03T16:29:13;7.57;;;2.00;;
76296;SDS011;65104;52.994;6.552;2023-03-03T16:47:21;11.80;;;2.08;;
76296;SDS011;65104;52.994;6.552;2023-03-03T16:52:47;9.52;;;1.85;;
76296;SDS011;65104;52.994;6.552;2023-03-03T16:55:19;21.67;;;9.35;;
76296;SDS011;65104;52.994;6.552;2023-03-03T16:57:56;10.90;;;3.90;;
76296;SDS011;65104;52.994;6.552;2023-03-03T17:03:31;14.48;;;2.85;;
76296;SDS011;65104;52.994;6.552;2023-03-03T17:06:05;16.50;;;5.97;;
76296;SDS011;65104;52.994;6.552;2023-03-03T17:14:18;14.77;;;3.05;;
76296;SDS011;65104;52.994;6.552;2023-03-03T17:25:24;7.05;;;1.75;;
76296;SDS011;65104;52.994;6.552;2023-03-03T17:36:02;6.70;;;1.92;;
76296;SDS011;65104;52.994;6.552;2023-03-03T17:44:14;13.07;;;2.45;;
76296;SDS011;65104;52.994;6.552;2023-03-03T17:46:50;7.78;;;1.83;;
76296;SDS011;65104;52.994;6.552;2023-03-03T17:55:28;7.75;;;2.55;;
76296;SDS011;65104;52.994;6.552;2023-03-03T18:08:57;10.57;;;2.42;;
76296;SDS011;65104;52.994;6.552;2023-03-03T18:11:43;8.77;;;2.30;;
76296;SDS011;65104;52.994;6.552;2023-03-03T18:14:36;10.13;;;2.00;;
76296;SDS011;65104;52.994;6.552;2023-03-03T18:19:52;14.35;;;2.90;;
76296;SDS011;65104;52.994;6.552;2023-03-03T18:22:42;6.18;;;2.28;;
76296;SDS011;65104;52.994;6.552;2023-03-03T18:25:08;8.13;;;2.83;;
76296;SDS011;65104;52.994;6.552;2023-03-03T18:27:37;9.15;;;2.35;;
76296;SDS011;65104;52.994;6.552;2023-03-03T18:35:39;7.82;;;2.40;;
76296;SDS011;65104;52.994;6.552;2023-03-03T18:40:55;9.68;;;2.60;;
76296;SDS011;65104;52.994;6.552;2023-03-03T18:49:04;7.85;;;2.00;;
76296;SDS011;65104;52.994;6.552;2023-03-03T18:57:20;10.95;;;2.35;;
76296;SDS011;65104;52.994;6.552;2023-03-03T19:04:36;13.80;;;2.95;;
76296;SDS011;65104;52.994;6.552;2023-03-03T19:07:46;11.88;;;2.88;;
76296;SDS011;65104;52.994;6.552;2023-03-03T19:12:56;11.48;;;2.40;;
76296;SDS011;65104;52.994;6.552;2023-03-03T19:18:13;15.13;;;2.83;;
76296;SDS011;65104;52.994;6.552;2023-03-03T19:20:43;13.77;;;2.58;;
76296;SDS011;65104;52.994;6.552;2023-03-03T19:23:17;14.10;;;2.70;;
76296;SDS011;65104;52.994;6.552;2023-03-03T19:31:38;13.75;;;3.20;;
76296;SDS011;65104;52.994;6.552;2023-03-03T19:37:03;12.52;;;2.38;;
76296;SDS011;65104;52.994;6.552;2023-03-03T19:39:44;12.55;;;2.92;;
76296;SDS011;65104;52.994;6.552;2023-03-03T19:42:24;10.57;;;2.42;;
76296;SDS011;65104;52.994;6.552;2023-03-03T19:57:01;13.13;;;2.63;;
76296;SDS011;65104;52.994;6.552;2023-03-03T19:59:38;12.60;;;2.90;;
76296;SDS011;65104;52.994;6.552;2023-03-03T20:02:36;13.98;;;3.67;;
76296;SDS011;65104;52.994;6.552;2023-03-03T20:08:33;13.98;;;3.38;;
76296;SDS011;65104;52.994;6.552;2023-03-03T20:17:43;13.43;;;2.30;;
76296;SDS011;65104;52.994;6.552;2023-03-03T20:25:54;10.50;;;1.92;;
76296;SDS011;65104;52.994;6.552;2023-03-03T20:28:28;8.85;;;2.75;;
76296;SDS011;65104;52.994;6.552;2023-03-03T20:31:19;8.13;;;2.45;;
76296;SDS011;65104;52.994;6.552;2023-03-03T20:36:48;12.05;;;2.90;;
76296;SDS011;65104;52.994;6.552;2023-03-03T20:42:10;8.10;;;1.80;;
76296;SDS011;65104;52.994;6.552;2023-03-03T20:45:24;14.30;;;2.30;;
76296;SDS011;65104;52.994;6.552;2023-03-03T20:50:31;12.48;;;2.42;;
76296;SDS011;65104;52.994;6.552;2023-03-03T20:53:30;7.68;;;2.13;;
76296;SDS011;65104;52.994;6.552;2023-03-03T21:04:35;11.77;;;1.65;;
76296;SDS011;65104;52.994;6.552;2023-03-03T21:07:02;8.25;;;2.00;;
76296;SDS011;65104;52.994;6.552;2023-03-03T21:09:30;10.70;;;2.50;;
76296;SDS011;65104;52.994;6.552;2023-03-03T21:12:01;9.60;;;2.00;;
76296;SDS011;65104;52.994;6.552;2023-03-03T21:14:35;8.98;;;2.10;;
76296;SDS011;65104;52.994;6.552;2023-03-03T21:17:10;11.25;;;2.50;;